Time;durP1;ratioP1;P1;durP2;ratioP2;P2;SDS_P1;SDS_P2;PMS_P1;PMS_P2;Temp;Humidity;BMP_temperature;BMP_pressure;BME280_temperature;BME280_humidity;BME280_pressure;Samples;Min_cycle;Max_cycle;Signal;HPM_P1;HPM_P2
2023/08/17 00:01:45;;;;;;;0.50;0.50;;;17.00;99.90;;;;;;5084696;28;20525;-82
2023/08/17 00:04:12;;;;;;;0.50;0.40;;;17.00;99.90;;;;;;5086699;28;20433;-82
2023/08/17 00:06:39;;;;;;;0.50;0.40;;;17.00;99.90;;;;;;5085895;28;20463;-81
2023/08/17 00:09:06;;;;;;;0.50;0.40;;;17.00;99.90;;;;;;5086202;28;20997;-82
2023/08/17 00:11:34;;;;;;;0.50;0.30;;;17.00;99.90;;;;;;5084504;28;20876;-82
2023/08/17 00:14:02;;;;;;;0.50;0.33;;;16.90;99.90;;;;;;5086259;28;21037;-78
2023/08/17 00:16:29;;;;;;;0.50;0.40;;;16.90;99.90;;;;;;5086115;28;20510;-82
2023/08/17 00:18:56;;;;;;;0.50;0.30;;;17.00;99.90;;;;;;5086171;28;20523;-82
2023/08/17 00:21:23;;;;;;;0.50;0.40;;;17.00;99.90;;;;;;5086085;28;21041;-81
2023/08/17 00:23:50;;;;;;;0.50;0.30;;;17.00;99.90;;;;;;5086148;28;20472;-82
2023/08/17 00:26:17;;;;;;;0.50;0.30;;;17.00;99.90;;;;;;5084726;28;21072;-79
2023/08/17 00:28:44;;;;;;;0.50;0.30;;;17.10;99.90;;;;;;5085518;28;20546;-83
2023/08/17 00:31:12;;;;;;;0.50;0.30;;;17.10;99.90;;;;;;5085254;28;20858;-82
2023/08/17 00:33:39;;;;;;;0.50;0.37;;;17.10;99.90;;;;;;5085133;28;20984;-81
2023/08/17 00:36:06;;;;;;;0.50;0.40;;;17.10;99.90;;;;;;5085527;28;20438;-80
2023/08/17 00:38:33;;;;;;;0.50;0.37;;;17.10;99.90;;;;;;5084966;28;20434;-82
2023/08/17 00:40:59;;;;;;;0.50;0.37;;;17.00;99.90;;;;;;5084636;28;20472;-82
2023/08/17 00:43:26;;;;;;;0.50;0.30;;;17.10;99.90;;;;;;5085889;28;20902;-82
2023/08/17 00:45:54;;;;;;;0.50;0.30;;;17.10;99.90;;;;;;5085166;28;20530;-82
2023/08/17 00:48:22;;;;;;;0.50;0.40;;;17.10;99.90;;;;;;5084600;28;20486;-82
2023/08/17 00:50:51;;;;;;;0.50;0.40;;;17.00;99.90;;;;;;5085363;28;20453;-79
2023/08/17 00:53:19;;;;;;;0.50;0.40;;;17.00;99.90;;;;;;5085256;28;20485;-82
2023/08/17 00:55:46;;;;;;;0.50;0.30;;;16.90;99.90;;;;;;5084469;28;20466;-81
2023/08/17 00:58:13;;;;;;;0.50;0.30;;;16.90;99.90;;;;;;5084191;28;20458;-81
2023/08/17 01:00:40;;;;;;;0.50;0.30;;;16.90;99.90;;;;;;5085075;28;20517;-82
2023/08/17 01:03:07;;;;;;;0.50;0.40;;;16.90;99.90;;;;;;5084692;28;20534;-81
2023/08/17 01:05:36;;;;;;;0.50;0.40;;;16.90;99.90;;;;;;5084599;28;20499;-83
2023/08/17 01:08:03;;;;;;;0.50;0.30;;;16.90;99.90;;;;;;5083662;28;20444;-82
2023/08/17 01:10:37;;;;;;;0.50;0.50;;;16.80;99.90;;;;;;5084109;28;20442;-80
2023/08/17 01:13:14;;;;;;;0.50;0.40;;;16.80;99.90;;;;;;5084535;28;20461;-81
2023/08/17 01:15:46;;;;;;;0.50;0.30;;;16.80;99.90;;;;;;5084255;28;20956;-81
2023/08/17 01:18:18;;;;;;;0.50;0.33;;;16.80;99.90;;;;;;5084011;28;20467;-81
2023/08/17 01:20:48;;;;;;;0.50;0.30;;;16.80;99.90;;;;;;5084792;28;20505;-79
2023/08/17 01:23:16;;;;;;;0.50;0.30;;;16.80;99.90;;;;;;5084994;28;20490;-81
2023/08/17 01:25:43;;;;;;;0.50;0.30;;;16.80;99.90;;;;;;5083545;28;20479;-82
2023/08/17 01:28:10;;;;;;;0.50;0.40;;;16.90;99.90;;;;;;5083458;28;20533;-81
2023/08/17 01:30:43;;;;;;;0.50;0.30;;;16.90;99.90;;;;;;5085086;28;20438;-82
2023/08/17 01:33:14;;;;;;;0.50;0.30;;;16.90;99.90;;;;;;5084264;28;20521;-82
2023/08/17 01:35:49;;;;;;;0.50;0.30;;;16.90;99.90;;;;;;5084318;28;20460;-82
2023/08/17 01:38:19;;;;;;;0.50;0.33;;;17.00;99.90;;;;;;5084410;28;20462;-81
2023/08/17 01:40:48;;;;;;;0.50;0.30;;;16.90;99.90;;;;;;5084770;28;20448;-81
2023/08/17 01:43:17;;;;;;;0.50;0.40;;;16.90;99.90;;;;;;5084583;28;20541;-82
2023/08/17 01:45:44;;;;;;;0.50;0.40;;;16.90;99.90;;;;;;5084367;28;20565;-82
2023/08/17 01:48:10;;;;;;;0.50;0.30;;;17.00;99.90;;;;;;5083757;28;20477;-80
2023/08/17 01:50:37;;;;;;;0.50;0.40;;;17.00;99.90;;;;;;5083904;28;20432;-82
2023/08/17 01:53:04;;;;;;;0.50;0.40;;;17.00;99.90;;;;;;5082609;28;20477;-81
2023/08/17 01:55:35;;;;;;;0.50;0.30;;;16.90;99.90;;;;;;5083967;28;20884;-82
2023/08/17 01:58:02;;;;;;;0.50;0.30;;;16.80;99.90;;;;;;5084073;28;20860;-82
2023/08/17 02:00:28;;;;;;;0.50;0.40;;;16.80;99.90;;;;;;5084450;28;20515;-82
2023/08/17 02:02:55;;;;;;;0.50;0.30;;;16.80;99.90;;;;;;5084832;28;20456;-81
2023/08/17 02:05:22;;;;;;;0.50;0.30;;;16.80;99.90;;;;;;5083704;28;20512;-81
2023/08/17 02:07:49;;;;;;;0.50;0.30;;;16.80;99.90;;;;;;5084184;28;20526;-82
2023/08/17 02:10:16;;;;;;;0.50;0.40;;;16.90;99.90;;;;;;5084078;28;20506;-82
2023/08/17 02:12:44;;;;;;;0.50;0.40;;;16.90;99.90;;;;;;5084889;28;20574;-82
2023/08/17 02:15:11;;;;;;;0.50;0.40;;;16.90;99.90;;;;;;5087935;28;20505;-82
2023/08/17 02:17:38;;;;;;;0.50;0.40;;;16.90;99.90;;;;;;5088598;28;20497;-82
2023/08/17 02:20:06;;;;;;;0.50;0.30;;;16.90;99.90;;;;;;5088471;28;20505;-81
2023/08/17 02:22:33;;;;;;;0.50;0.40;;;16.90;99.90;;;;;;5088696;28;20478;-82
2023/08/17 02:24:59;;;;;;;0.50;0.30;;;16.90;99.90;;;;;;5088358;28;20447;-82
2023/08/17 02:27:26;;;;;;;0.50;0.40;;;16.90;99.90;;;;;;5087454;28;20525;-82
2023/08/17 02:29:54;;;;;;;0.50;0.30;;;16.90;99.90;;;;;;5087778;28;20488;-81
2023/08/17 02:32:21;;;;;;;0.50;0.30;;;16.90;99.90;;;;;;5087836;28;20464;-81
2023/08/17 02:34:48;;;;;;;0.50;0.40;;;16.90;99.90;;;;;;5087397;28;20562;-82
2023/08/17 02:37:15;;;;;;;0.50;0.30;;;16.90;99.90;;;;;;5088125;28;20521;-82
2023/08/17 02:39:42;;;;;;;0.50;0.30;;;16.90;99.90;;;;;;5087991;28;20493;-82
2023/08/17 02:42:08;;;;;;;0.50;0.40;;;16.80;99.90;;;;;;5087971;28;20466;-81
2023/08/17 02:44:35;;;;;;;0.50;0.40;;;16.70;99.90;;;;;;5114374;22;20493;-85
2023/08/17 02:47:04;;;;;;;0.50;0.33;;;16.70;99.90;;;;;;5023396;28;20479;-84
2023/08/17 02:49:30;;;;;;;0.50;0.40;;;16.70;99.90;;;;;;5035073;28;21089;-84
2023/08/17 02:51:57;;;;;;;0.50;0.37;;;16.70;99.90;;;;;;5034948;28;20441;-83
2023/08/17 02:54:24;;;;;;;0.50;0.37;;;16.60;99.90;;;;;;5031342;28;20565;-83
2023/08/17 02:56:51;;;;;;;0.50;0.37;;;16.60;99.90;;;;;;5022005;28;20823;-83
2023/08/17 02:59:18;;;;;;;0.50;0.30;;;16.60;99.90;;;;;;5023511;28;20874;-83
2023/08/17 03:01:46;;;;;;;0.50;0.30;;;16.60;99.90;;;;;;5023091;28;20443;-80
2023/08/17 03:04:14;;;;;;;0.50;0.30;;;16.60;99.90;;;;;;5024599;28;20899;-81
2023/08/17 03:07:20;;;;;;;0.67;0.50;;;16.60;99.90;;;;;;5025865;28;21034;-84
2023/08/17 03:09:47;;;;;;;0.50;0.40;;;16.60;99.90;;;;;;5017232;28;20507;-83
2023/08/17 03:12:14;;;;;;;0.50;0.40;;;16.60;99.90;;;;;;5024842;28;20819;-83
2023/08/17 03:14:40;;;;;;;0.50;0.40;;;16.60;99.90;;;;;;5026291;28;20547;-83
2023/08/17 03:17:07;;;;;;;0.50;0.40;;;16.50;99.90;;;;;;5024984;28;20931;-82
2023/08/17 03:19:35;;;;;;;0.50;0.30;;;16.50;99.90;;;;;;5022820;28;20442;-84
2023/08/17 03:22:02;;;;;;;0.50;0.30;;;16.60;99.90;;;;;;5022736;28;20459;-82
2023/08/17 03:24:29;;;;;;;0.50;0.40;;;16.50;99.90;;;;;;5024816;28;20474;-84
2023/08/17 03:26:56;;;;;;;0.50;0.30;;;16.50;99.90;;;;;;5026207;28;20440;-83
2023/08/17 03:29:22;;;;;;;0.50;0.30;;;16.50;99.90;;;;;;5023112;28;20485;-83
2023/08/17 03:31:50;;;;;;;0.50;0.40;;;16.50;99.90;;;;;;5022767;28;20459;-83
2023/08/17 03:34:16;;;;;;;0.50;0.40;;;16.50;99.90;;;;;;5024097;28;20466;-85
2023/08/17 03:36:44;;;;;;;0.50;0.30;;;16.50;99.90;;;;;;5025658;28;20866;-84
2023/08/17 03:39:11;;;;;;;0.50;0.30;;;16.50;99.90;;;;;;5024734;28;20458;-84
2023/08/17 03:41:38;;;;;;;0.50;0.30;;;16.50;99.90;;;;;;5022456;28;20527;-84
2023/08/17 03:44:06;;;;;;;0.50;0.30;;;16.50;99.90;;;;;;5022268;28;20474;-83
2023/08/17 03:46:33;;;;;;;0.50;0.40;;;16.50;99.90;;;;;;5025670;28;20444;-83
2023/08/17 03:49:00;;;;;;;0.50;0.30;;;16.60;99.90;;;;;;5025842;28;20443;-85
2023/08/17 03:51:27;;;;;;;0.50;0.30;;;16.60;99.90;;;;;;5022576;28;20443;-84
2023/08/17 03:53:55;;;;;;;0.50;0.30;;;16.60;99.90;;;;;;5022476;28;20474;-84
2023/08/17 03:56:22;;;;;;;0.50;0.30;;;16.50;99.90;;;;;;5024256;28;20442;-84
2023/08/17 03:58:48;;;;;;;0.50;0.30;;;16.50;99.90;;;;;;5025724;28;20445;-83
2023/08/17 04:01:15;;;;;;;0.50;0.30;;;16.50;99.90;;;;;;5024034;28;20447;-84
2023/08/17 04:03:42;;;;;;;0.50;0.30;;;16.50;99.90;;;;;;5021721;28;20441;-82
2023/08/17 04:06:10;;;;;;;0.50;0.40;;;16.50;99.90;;;;;;5022185;28;20441;-84
2023/08/17 04:08:37;;;;;;;0.50;0.30;;;16.50;99.90;;;;;;5024893;28;20475;-82
2023/08/17 04:11:06;;;;;;;0.50;0.40;;;16.40;99.90;;;;;;5025145;28;20479;-84
2023/08/17 04:13:33;;;;;;;0.50;0.33;;;16.40;99.90;;;;;;5013728;28;20446;-85
2023/08/17 04:16:00;;;;;;;0.50;0.40;;;16.40;99.90;;;;;;5021638;28;20448;-84
2023/08/17 04:18:26;;;;;;;0.50;0.30;;;16.30;99.90;;;;;;5021148;28;20450;-84
2023/08/17 04:20:53;;;;;;;0.50;0.50;;;16.30;99.90;;;;;;5021221;28;20444;-84
2023/08/17 04:23:20;;;;;;;0.50;0.30;;;16.30;99.90;;;;;;5023155;28;20451;-86
2023/08/17 04:25:48;;;;;;;0.50;0.40;;;16.30;99.90;;;;;;5024808;28;20466;-85
2023/08/17 04:28:16;;;;;;;0.50;0.40;;;16.40;99.90;;;;;;5016433;28;20437;-84
2023/08/17 04:30:43;;;;;;;0.50;0.30;;;16.40;99.90;;;;;;5020054;28;20851;-84
2023/08/17 04:33:10;;;;;;;0.50;0.40;;;16.40;99.90;;;;;;5021030;28;20449;-82
2023/08/17 04:35:36;;;;;;;0.50;0.37;;;16.40;99.90;;;;;;5024337;28;20556;-84
2023/08/17 04:38:03;;;;;;;0.70;0.67;;;16.40;99.90;;;;;;5025348;28;20820;-84
2023/08/17 04:40:30;;;;;;;0.50;0.30;;;16.30;99.90;;;;;;5023805;28;20439;-83
2023/08/17 04:42:57;;;;;;;0.50;0.40;;;16.30;99.90;;;;;;5017748;28;20449;-85
2023/08/17 04:45:25;;;;;;;0.50;0.33;;;16.30;99.90;;;;;;5020984;28;20471;-83
2023/08/17 04:47:52;;;;;;;0.50;0.30;;;16.30;99.90;;;;;;5026619;28;20541;-83
2023/08/17 04:50:19;;;;;;;0.67;0.53;;;16.30;99.90;;;;;;5023913;28;20487;-83
2023/08/17 04:52:46;;;;;;;0.50;0.40;;;16.30;99.90;;;;;;5027846;28;20441;-83
2023/08/17 04:55:13;;;;;;;2.00;1.90;;;16.30;99.90;;;;;;5020599;28;20519;-81
2023/08/17 04:57:40;;;;;;;0.70;0.70;;;16.40;99.90;;;;;;5020355;28;20535;-84
2023/08/17 05:00:09;;;;;;;0.50;0.40;;;16.40;99.90;;;;;;5028443;28;20452;-84
2023/08/17 05:02:37;;;;;;;0.50;0.40;;;16.50;99.90;;;;;;5021060;28;20454;-84
2023/08/17 05:05:05;;;;;;;0.50;0.40;;;16.50;99.90;;;;;;5020686;28;20470;-84
2023/08/17 05:07:32;;;;;;;0.50;0.40;;;16.60;99.90;;;;;;5022902;28;20441;-84
2023/08/17 05:09:59;;;;;;;0.50;0.30;;;16.60;99.90;;;;;;5032412;28;20788;-84
2023/08/17 05:12:26;;;;;;;0.50;0.30;;;16.70;99.90;;;;;;5016000;28;20446;-83
2023/08/17 05:14:52;;;;;;;0.50;0.30;;;16.70;99.90;;;;;;5024324;28;21008;-84
2023/08/17 05:17:19;;;;;;;0.50;0.40;;;16.70;99.90;;;;;;5023981;28;20544;-84
2023/08/17 05:19:47;;;;;;;0.50;0.30;;;16.80;99.90;;;;;;5024233;28;20436;-84
2023/08/17 05:22:14;;;;;;;0.50;0.30;;;16.80;99.90;;;;;;5025058;28;20449;-83
2023/08/17 05:24:41;;;;;;;0.50;0.30;;;16.90;99.90;;;;;;5020002;28;20468;-84
2023/08/17 05:27:08;;;;;;;2.40;2.20;;;16.90;99.90;;;;;;5019359;28;20440;-83
2023/08/17 05:29:35;;;;;;;0.50;0.30;;;16.90;99.90;;;;;;5021284;28;23135;-83
2023/08/17 05:32:02;;;;;;;0.50;0.33;;;17.00;99.90;;;;;;5029026;28;20445;-83
2023/08/17 05:34:28;;;;;;;0.50;0.30;;;17.10;99.90;;;;;;5027482;28;20478;-84
2023/08/17 05:36:56;;;;;;;0.50;0.30;;;17.10;99.90;;;;;;5023488;28;20444;-82
2023/08/17 05:39:23;;;;;;;0.50;0.30;;;17.10;99.90;;;;;;5015596;28;20437;-83
2023/08/17 05:41:50;;;;;;;0.50;0.30;;;17.20;99.90;;;;;;5022332;28;20449;-84
2023/08/17 05:44:17;;;;;;;0.50;0.30;;;17.10;99.90;;;;;;5029178;28;20468;-84
2023/08/17 05:46:44;;;;;;;0.50;0.30;;;17.10;99.90;;;;;;5028092;28;20537;-83
2023/08/17 05:49:10;;;;;;;0.50;0.40;;;17.10;99.90;;;;;;5020361;28;20449;-80
2023/08/17 05:51:37;;;;;;;0.50;0.40;;;17.20;99.90;;;;;;5021403;28;20482;-83
2023/08/17 05:54:07;;;;;;;0.50;0.40;;;17.10;99.90;;;;;;5026721;28;21148;-83
2023/08/17 05:56:33;;;;;;;0.50;0.33;;;17.20;99.90;;;;;;5014993;28;20448;-84
2023/08/17 05:59:00;;;;;;;0.50;0.30;;;17.20;99.90;;;;;;5023877;28;20544;-84
2023/08/17 06:01:27;;;;;;;0.50;0.30;;;17.20;99.90;;;;;;5022341;28;20481;-84
2023/08/17 06:03:54;;;;;;;0.50;0.33;;;17.20;99.90;;;;;;5020165;28;20470;-83
2023/08/17 06:06:21;;;;;;;0.50;0.30;;;17.20;99.90;;;;;;5020270;28;20475;-82
2023/08/17 06:08:48;;;;;;;0.50;0.40;;;17.20;99.90;;;;;;5019865;28;20449;-84
2023/08/17 06:11:16;;;;;;;0.50;0.30;;;17.30;99.90;;;;;;5020055;28;20472;-84
2023/08/17 06:13:42;;;;;;;1.37;1.27;;;17.30;99.90;;;;;;5023423;28;20443;-82
2023/08/17 06:16:10;;;;;;;0.50;0.40;;;17.30;99.90;;;;;;5023584;28;20449;-83
2023/08/17 06:18:37;;;;;;;0.50;0.30;;;17.30;99.90;;;;;;5014536;28;20451;-84
2023/08/17 06:21:04;;;;;;;0.50;0.30;;;17.40;99.90;;;;;;5023049;28;20531;-84
2023/08/17 06:23:31;;;;;;;0.50;0.40;;;17.40;99.90;;;;;;5026174;28;20437;-82
2023/08/17 06:25:58;;;;;;;0.50;0.33;;;17.40;99.90;;;;;;5011864;28;20453;-84
2023/08/17 06:28:27;;;;;;;0.50;0.40;;;17.30;99.90;;;;;;5020374;28;20440;-84
2023/08/17 06:30:54;;;;;;;0.50;0.30;;;17.40;99.90;;;;;;5029980;28;20507;-83
2023/08/17 06:33:20;;;;;;;0.50;0.30;;;17.40;99.90;;;;;;5019776;28;20449;-84
2023/08/17 06:35:47;;;;;;;0.50;0.40;;;17.40;99.90;;;;;;5019635;28;20466;-81
2023/08/17 06:38:14;;;;;;;0.50;0.40;;;17.40;99.90;;;;;;5027396;28;20451;-83
2023/08/17 06:40:41;;;;;;;0.50;0.30;;;17.40;99.90;;;;;;5024178;28;20988;-83
2023/08/17 06:43:08;;;;;;;0.50;0.40;;;17.50;99.90;;;;;;5020672;28;20445;-83
2023/08/17 06:45:36;;;;;;;0.50;0.40;;;17.40;99.90;;;;;;5021591;28;21004;-80
2023/08/17 06:48:03;;;;;;;0.50;0.30;;;17.40;99.90;;;;;;5023615;28;20448;-83
2023/08/17 06:50:30;;;;;;;0.50;0.40;;;17.50;99.90;;;;;;5022785;28;20483;-83
2023/08/17 06:52:56;;;;;;;0.50;0.40;;;17.60;99.90;;;;;;5017291;28;20444;-83
2023/08/17 06:55:24;;;;;;;0.50;0.50;;;17.50;99.90;;;;;;5026418;28;20491;-83
2023/08/17 06:57:51;;;;;;;0.80;0.60;;;17.40;99.90;;;;;;5013311;28;20464;-83
2023/08/17 07:00:20;;;;;;;0.50;0.40;;;17.40;99.90;;;;;;5024102;28;20477;-83
2023/08/17 07:02:48;;;;;;;0.50;0.40;;;17.40;99.90;;;;;;5027392;28;20440;-81
2023/08/17 07:05:15;;;;;;;0.50;0.40;;;17.30;99.90;;;;;;5027916;28;21014;-83
2023/08/17 07:07:42;;;;;;;0.83;0.83;;;17.20;99.90;;;;;;5025473;28;20436;-83
2023/08/17 07:10:10;;;;;;;0.50;0.30;;;17.30;99.90;;;;;;5024199;28;20464;-83
2023/08/17 07:12:37;;;;;;;0.50;0.30;;;17.50;99.90;;;;;;5025547;28;20472;-83
2023/08/17 07:15:04;;;;;;;0.50;0.30;;;17.50;99.90;;;;;;5027611;28;20470;-83
2023/08/17 07:17:31;;;;;;;0.50;0.30;;;17.60;99.90;;;;;;5028126;28;20527;-82
2023/08/17 07:19:59;;;;;;;2.50;2.40;;;17.60;99.90;;;;;;5024139;28;20935;-82
2023/08/17 07:22:26;;;;;;;0.50;0.30;;;17.70;99.90;;;;;;5023881;28;20434;-83
2023/08/17 07:24:53;;;;;;;1.03;0.93;;;17.70;99.90;;;;;;5015362;28;20504;-83
2023/08/17 07:27:19;;;;;;;0.50;0.40;;;17.80;99.90;;;;;;5023202;28;21098;-82
2023/08/17 07:29:46;;;;;;;0.50;0.30;;;17.90;99.90;;;;;;5031036;28;20455;-83
2023/08/17 07:32:13;;;;;;;0.50;0.30;;;18.00;99.90;;;;;;5023446;28;21015;-83
2023/08/17 07:34:40;;;;;;;0.50;0.30;;;18.10;99.90;;;;;;5023884;28;20474;-83
2023/08/17 07:37:08;;;;;;;0.50;0.40;;;18.00;99.90;;;;;;5026440;28;20436;-83
2023/08/17 07:39:35;;;;;;;0.60;0.60;;;17.90;99.90;;;;;;5025806;28;20441;-83
2023/08/17 07:42:01;;;;;;;0.50;0.30;;;18.00;99.90;;;;;;5023306;28;20437;-83
2023/08/17 07:44:31;;;;;;;0.50;0.30;;;18.10;99.90;;;;;;5022956;28;20488;-83
2023/08/17 07:46:58;;;;;;;0.50;0.30;;;18.10;99.90;;;;;;5025941;28;20444;-81
2023/08/17 07:49:25;;;;;;;0.50;0.30;;;18.20;99.90;;;;;;5026284;28;20449;-83
2023/08/17 07:51:52;;;;;;;0.50;0.30;;;18.30;99.90;;;;;;5022641;28;20486;-83
2023/08/17 07:54:20;;;;;;;1.30;0.90;;;18.30;99.90;;;;;;5022658;28;20471;-83
2023/08/17 07:56:47;;;;;;;0.50;0.30;;;18.40;99.90;;;;;;5024300;28;20441;-82
2023/08/17 07:59:14;;;;;;;0.50;0.30;;;18.50;99.90;;;;;;5026413;28;20454;-83
2023/08/17 08:01:41;;;;;;;0.50;0.30;;;18.50;99.90;;;;;;5027071;28;20441;-84
2023/08/17 08:04:08;;;;;;;0.50;0.30;;;18.60;99.90;;;;;;5025629;28;20471;-83
2023/08/17 08:06:35;;;;;;;0.50;0.33;;;18.60;99.90;;;;;;5026751;28;20449;-83
2023/08/17 08:09:02;;;;;;;0.50;0.30;;;18.80;99.90;;;;;;5028987;28;20452;-80
2023/08/17 08:11:31;;;;;;;0.50;0.30;;;18.90;99.90;;;;;;5028041;28;20516;-83
2023/08/17 08:13:58;;;;;;;0.50;0.30;;;19.00;99.90;;;;;;5032474;28;20879;-83
2023/08/17 08:16:25;;;;;;;0.50;0.30;;;19.00;99.90;;;;;;5022769;28;20464;-82
2023/08/17 08:18:51;;;;;;;0.50;0.30;;;19.10;99.90;;;;;;5029962;28;20448;-83
2023/08/17 08:21:18;;;;;;;0.50;0.30;;;19.10;99.90;;;;;;5022516;28;20444;-82
2023/08/17 08:23:45;;;;;;;0.50;0.30;;;19.20;99.90;;;;;;5023925;28;21039;-83
2023/08/17 08:26:12;;;;;;;0.50;0.30;;;19.20;99.90;;;;;;5025651;28;20440;-83
2023/08/17 08:28:40;;;;;;;0.50;0.30;;;19.20;99.90;;;;;;5024085;28;20454;-83
2023/08/17 08:31:07;;;;;;;0.50;0.30;;;19.20;99.90;;;;;;5022379;28;20476;-82
2023/08/17 08:33:34;;;;;;;0.50;0.30;;;19.10;99.90;;;;;;5023669;28;20548;-82
2023/08/17 08:36:01;;;;;;;0.50;0.30;;;19.20;99.90;;;;;;5027042;28;20442;-83
2023/08/17 08:38:29;;;;;;;0.50;0.30;;;19.20;99.90;;;;;;5027019;28;20477;-83
2023/08/17 08:40:56;;;;;;;0.60;0.60;;;19.30;99.90;;;;;;5025522;28;20437;-82
2023/08/17 08:43:22;;;;;;;0.50;0.30;;;19.10;99.90;;;;;;5025213;28;20555;-84
2023/08/17 08:45:52;;;;;;;0.50;0.30;;;19.00;99.90;;;;;;5016519;28;20473;-83
2023/08/17 08:48:20;;;;;;;0.50;0.30;;;19.10;99.90;;;;;;5021715;28;20474;-83
2023/08/17 08:50:49;;;;;;;0.50;0.30;;;19.10;99.90;;;;;;5029668;28;20480;-81
2023/08/17 08:53:16;;;;;;;0.50;0.30;;;19.10;99.90;;;;;;5022019;28;20449;-83
2023/08/17 08:55:48;;;;;;;0.60;0.50;;;19.00;99.90;;;;;;5031030;28;20468;-83
2023/08/17 08:58:17;;;;;;;0.50;0.30;;;19.00;99.90;;;;;;5025339;28;20807;-83
2023/08/17 09:00:46;;;;;;;0.60;0.40;;;19.00;99.90;;;;;;5024804;28;20456;-81
2023/08/17 09:03:16;;;;;;;0.50;0.30;;;19.00;99.90;;;;;;5020089;28;20449;-83
2023/08/17 09:05:45;;;;;;;0.50;0.30;;;19.00;99.90;;;;;;5017125;28;20483;-83
2023/08/17 09:08:14;;;;;;;0.50;0.30;;;19.10;99.90;;;;;;5024980;28;20824;-82
2023/08/17 09:10:41;;;;;;;0.50;0.30;;;19.20;99.90;;;;;;5024616;28;20814;-83
2023/08/17 09:13:08;;;;;;;0.50;0.30;;;19.30;99.90;;;;;;5021200;28;20447;-83
2023/08/17 09:15:35;;;;;;;0.50;0.40;;;19.30;99.90;;;;;;5021470;28;20461;-80
2023/08/17 09:18:02;;;;;;;0.50;0.30;;;19.30;99.90;;;;;;5028216;28;20439;-82
2023/08/17 09:20:41;;;;;;;0.50;0.40;;;19.30;99.90;;;;;;5025180;28;20440;-83
2023/08/17 09:23:12;;;;;;;0.50;0.30;;;19.40;99.90;;;;;;5013472;28;20464;-83
2023/08/17 09:25:41;;;;;;;0.50;0.30;;;19.40;99.90;;;;;;5021294;28;20466;-83
2023/08/17 09:28:09;;;;;;;0.50;0.40;;;19.30;99.90;;;;;;5020437;28;20513;-82
2023/08/17 09:30:51;;;;;;;0.50;0.30;;;19.40;99.90;;;;;;5024186;28;20446;-82
2023/08/17 09:33:17;;;;;;;0.50;0.30;;;19.40;99.90;;;;;;5024194;28;20449;-83
2023/08/17 09:35:45;;;;;;;0.50;0.40;;;19.50;99.90;;;;;;5022735;28;20467;-83
2023/08/17 09:38:12;;;;;;;0.50;0.30;;;19.60;99.90;;;;;;5024991;28;20483;-83
2023/08/17 09:40:40;;;;;;;0.50;0.37;;;19.80;99.90;;;;;;5025285;28;20442;-82
2023/08/17 09:43:06;;;;;;;0.50;0.30;;;19.90;99.90;;;;;;5025970;28;20539;-83
2023/08/17 09:45:33;;;;;;;0.50;0.30;;;20.00;99.90;;;;;;5026254;28;20494;-84
2023/08/17 09:48:00;;;;;;;0.50;0.40;;;20.10;99.90;;;;;;5024882;28;20452;-83
2023/08/17 09:50:27;;;;;;;0.50;0.40;;;20.00;99.90;;;;;;5027220;28;20438;-81
2023/08/17 09:52:56;;;;;;;1.73;1.63;;;20.10;99.90;;;;;;5022913;28;20516;-84
2023/08/17 09:55:23;;;;;;;0.50;0.40;;;20.10;99.90;;;;;;5025454;28;20456;-83
2023/08/17 09:57:51;;;;;;;0.50;0.40;;;20.20;99.90;;;;;;5022633;28;20439;-83
2023/08/17 10:00:18;;;;;;;0.50;0.30;;;20.20;99.90;;;;;;5012417;28;20476;-83
2023/08/17 10:02:46;;;;;;;0.60;0.60;;;20.30;99.90;;;;;;5020351;28;20925;-83
2023/08/17 10:05:13;;;;;;;0.50;0.30;;;20.30;99.90;;;;;;5023769;28;20455;-84
2023/08/17 10:07:45;;;;;;;0.50;0.30;;;20.20;99.90;;;;;;5027240;28;20449;-81
2023/08/17 10:10:14;;;;;;;0.50;0.40;;;20.20;99.90;;;;;;5015682;28;20445;-84
2023/08/17 10:12:48;;;;;;;0.50;0.30;;;20.20;99.90;;;;;;5023687;28;20844;-84
2023/08/17 10:15:19;;;;;;;0.50;0.40;;;20.30;99.90;;;;;;5016044;28;20457;-85
2023/08/17 10:17:52;;;;;;;0.50;0.30;;;20.40;99.90;;;;;;5024065;28;20446;-84
2023/08/17 10:20:20;;;;;;;0.50;0.30;;;20.30;99.90;;;;;;5026912;28;20445;-84
2023/08/17 10:22:53;;;;;;;0.50;0.33;;;20.30;99.90;;;;;;5028411;28;21206;-82
2023/08/17 10:25:22;;;;;;;2.47;1.57;;;20.40;99.90;;;;;;5027866;28;20461;-83
2023/08/17 10:27:51;;;;;;;0.50;0.30;;;20.30;99.90;;;;;;5019625;28;20482;-84
2023/08/17 10:30:18;;;;;;;0.50;0.30;;;20.40;99.90;;;;;;5028311;28;20448;-83
2023/08/17 10:32:46;;;;;;;4.67;1.90;;;20.30;99.90;;;;;;5023665;28;20487;-82
2023/08/17 10:35:14;;;;;;;0.50;0.30;;;20.20;99.90;;;;;;5024096;28;20472;-84
2023/08/17 10:37:42;;;;;;;0.50;0.30;;;20.40;99.90;;;;;;5024166;28;20446;-81
2023/08/17 10:40:10;;;;;;;0.50;0.30;;;20.50;99.90;;;;;;5027093;28;20440;-83
2023/08/17 10:42:38;;;;;;;0.50;0.40;;;20.70;99.90;;;;;;5019839;28;20454;-83
2023/08/17 10:45:27;;;;;;;0.50;0.40;;;20.90;99.90;;;;;;5031524;28;20528;-83
2023/08/17 10:48:01;;;;;;;0.50;0.40;;;21.00;99.90;;;;;;5025624;28;20818;-83
2023/08/17 10:50:28;;;;;;;0.50;0.30;;;21.00;99.90;;;;;;5027137;28;20451;-82
2023/08/17 10:52:55;;;;;;;0.50;0.40;;;21.10;99.90;;;;;;5026255;28;20481;-83
2023/08/17 10:55:38;;;;;;;0.50;0.40;;;21.30;99.90;;;;;;5026679;28;20464;-83
2023/08/17 10:58:08;;;;;;;0.50;0.40;;;21.30;99.90;;;;;;5023613;28;20828;-82
2023/08/17 11:00:36;;;;;;;0.50;0.40;;;21.40;99.90;;;;;;5023063;28;20492;-81
2023/08/17 11:03:06;;;;;;;0.50;0.40;;;21.50;99.90;;;;;;5033412;28;20446;-83
2023/08/17 11:05:42;;;;;;;0.50;0.40;;;21.60;99.90;;;;;;5026646;28;20473;-82
2023/08/17 11:08:10;;;;;;;0.50;0.40;;;21.40;99.90;;;;;;5018200;28;20461;-82
2023/08/17 11:10:38;;;;;;;0.50;0.40;;;21.70;99.90;;;;;;5034886;28;20449;-82
2023/08/17 11:13:07;;;;;;;0.50;0.30;;;22.00;99.90;;;;;;5026665;28;20531;-82
2023/08/17 11:15:41;;;;;;;0.50;0.30;;;22.40;99.90;;;;;;5035112;28;20855;-83
2023/08/17 11:18:09;;;;;;;0.50;0.30;;;22.60;99.90;;;;;;5024959;28;20473;-84
2023/08/17 11:20:37;;;;;;;0.50;0.40;;;22.50;99.90;;;;;;5025723;28;20499;-81
2023/08/17 11:23:05;;;;;;;0.50;0.37;;;22.70;99.90;;;;;;5023427;28;20444;-84
2023/08/17 11:25:34;;;;;;;0.50;0.40;;;22.90;99.90;;;;;;5024416;28;20514;-82
2023/08/17 11:28:01;;;;;;;0.50;0.30;;;23.00;99.90;;;;;;5025650;28;20446;-84
2023/08/17 11:30:30;;;;;;;0.50;0.30;;;22.90;99.90;;;;;;5027249;28;20849;-82
2023/08/17 11:32:58;;;;;;;0.50;0.40;;;22.90;99.90;;;;;;5027292;28;21068;-83
2023/08/17 11:35:25;;;;;;;0.50;0.40;;;22.70;99.90;;;;;;5027647;28;20458;-83
2023/08/17 11:37:52;;;;;;;0.50;0.40;;;22.70;99.90;;;;;;5026693;28;20957;-82
2023/08/17 11:40:19;;;;;;;0.50;0.40;;;22.60;99.90;;;;;;5021431;28;20473;-84
2023/08/17 11:42:47;;;;;;;0.50;0.40;;;22.50;99.90;;;;;;5021006;28;20548;-82
2023/08/17 11:45:14;;;;;;;0.50;0.40;;;22.60;99.90;;;;;;5014733;28;20524;-83
2023/08/17 11:47:43;;;;;;;0.50;0.30;;;22.60;99.90;;;;;;5015510;28;20881;-80
2023/08/17 11:50:11;;;;;;;0.50;0.30;;;22.50;99.90;;;;;;5026473;28;20461;-82
2023/08/17 11:52:38;;;;;;;0.50;0.30;;;22.30;99.90;;;;;;5020302;28;20487;-83
2023/08/17 11:55:08;;;;;;;0.50;0.30;;;22.10;99.90;;;;;;5033354;28;20472;-82
2023/08/17 11:57:35;;;;;;;0.50;0.33;;;22.00;99.90;;;;;;5035292;28;20478;-82
2023/08/17 12:00:04;;;;;;;0.50;0.47;;;21.90;99.90;;;;;;5025241;28;20457;-83
2023/08/17 12:02:31;;;;;;;0.50;0.30;;;22.00;99.90;;;;;;5028304;28;20445;-81
2023/08/17 12:05:04;;;;;;;0.50;0.40;;;22.10;99.90;;;;;;5030583;28;20465;-83
2023/08/17 12:07:31;;;;;;;0.50;0.37;;;22.10;99.90;;;;;;5022034;28;20455;-81
2023/08/17 12:09:58;;;;;;;0.50;0.30;;;22.10;99.90;;;;;;5018189;28;20440;-81
2023/08/17 12:12:25;;;;;;;0.50;0.30;;;22.10;99.90;;;;;;5025681;28;21065;-81
2023/08/17 12:14:51;;;;;;;0.50;0.40;;;22.00;99.90;;;;;;5024883;28;20845;-81
2023/08/17 12:17:19;;;;;;;3.17;2.97;;;22.10;99.90;;;;;;5021167;28;20459;-81
2023/08/17 12:19:50;;;;;;;0.50;0.37;;;22.10;99.90;;;;;;5022646;28;20450;-81
2023/08/17 12:22:18;;;;;;;0.50;0.33;;;22.10;99.90;;;;;;5024555;28;20532;-82
2023/08/17 12:24:45;;;;;;;0.50;0.30;;;22.10;99.90;;;;;;5025502;28;20465;-82
2023/08/17 12:27:13;;;;;;;0.53;0.50;;;22.20;99.90;;;;;;5022534;28;20448;-80
2023/08/17 12:29:48;;;;;;;0.50;0.40;;;22.20;99.90;;;;;;5021874;28;20470;-82
2023/08/17 12:32:15;;;;;;;0.50;0.40;;;22.10;99.90;;;;;;5024180;28;20479;-81
2023/08/17 12:34:42;;;;;;;0.50;0.30;;;22.10;99.90;;;;;;5025023;28;20470;-80
2023/08/17 12:37:10;;;;;;;0.50;0.30;;;22.00;99.90;;;;;;5024732;28;20447;-81
2023/08/17 12:39:38;;;;;;;0.50;0.30;;;21.80;99.90;;;;;;5027710;28;20453;-81
2023/08/17 12:42:07;;;;;;;0.50;0.37;;;21.90;99.90;;;;;;5021859;28;20518;-81
2023/08/17 12:44:33;;;;;;;0.50;0.30;;;22.00;99.90;;;;;;5024086;28;20470;-81
2023/08/17 12:47:00;;;;;;;0.50;0.30;;;22.00;99.90;;;;;;5023710;28;20484;-81
2023/08/17 12:49:27;;;;;;;0.50;0.30;;;21.90;99.90;;;;;;5021085;28;20448;-81
2023/08/17 12:51:54;;;;;;;0.90;0.90;;;21.90;99.90;;;;;;5020938;28;20439;-81